createdAt,value
2019-02-25T11:05:06.850Z,39.9
2019-02-25T11:15:13.819Z,40.8
2019-02-25T11:25:23.457Z,41.3
2019-02-25T11:35:34.382Z,42.1
2019-02-25T11:45:44.299Z,43
2019-02-25T11:55:47.791Z,41
2019-02-25T12:05:52.753Z,40.5
2019-02-25T12:15:56.268Z,38.3
2019-02-25T12:41:10.622Z,38.7
2019-02-25T12:51:14.121Z,40.5
2019-02-25T13:01:17.647Z,39.3
2019-02-25T15:55:43.383Z,39
2019-02-25T16:05:47.038Z,44.2
2019-02-25T16:15:50.642Z,43.8
2019-02-25T16:25:56.939Z,43.6
2019-02-25T16:36:04.013Z,43.4
2019-02-25T16:46:17.851Z,43.3
2019-02-25T16:56:23.893Z,43.3
2019-02-25T17:06:30.682Z,43.4
2019-02-25T17:16:40.366Z,43.3
2019-02-25T17:26:43.945Z,44.1
2019-02-25T17:36:52.334Z,43.4
2019-02-25T17:47:04.040Z,43.4
2019-02-25T17:57:14.369Z,43.4
2019-02-25T18:07:18.038Z,43.3
2019-02-25T18:17:23.816Z,43.3
2019-02-25T18:27:27.408Z,43.2
2019-02-25T18:37:31.002Z,43.1
2019-02-25T18:47:34.520Z,43.1
2019-02-25T18:57:38.053Z,42.9
2019-02-25T19:07:41.633Z,43
2019-02-25T19:17:48.455Z,42.8
2019-02-25T19:27:58.879Z,42.8
2019-02-25T19:38:07.289Z,42.9
2019-02-25T19:48:16.614Z,42.8
2019-02-25T19:58:20.171Z,42.7
2019-02-25T20:08:23.730Z,42.7
2019-02-25T20:18:27.271Z,42.7
2019-02-25T20:28:31.095Z,42.6
2019-02-25T20:38:39.680Z,42.6
2019-02-25T20:48:48.488Z,42.3
2019-02-25T20:59:03.765Z,42.1
2019-02-25T21:09:13.218Z,41.9
2019-02-25T21:19:20.109Z,41.8
2019-02-25T21:29:29.275Z,41.8
2019-02-25T21:39:41.124Z,41.8
2019-02-25T21:49:46.297Z,41.8
2019-02-25T21:59:49.790Z,41.8
2019-02-25T22:09:53.275Z,41.8
2019-02-25T22:19:56.797Z,41.6
2019-02-25T22:30:05.254Z,41.5
2019-02-25T22:40:16.786Z,41.4
2019-02-25T22:50:21.082Z,41.3
2019-02-25T23:00:24.547Z,41.3
2019-02-25T23:10:28.039Z,41.3
2019-02-25T23:20:34.055Z,41.2
2019-02-25T23:30:39.849Z,41.2
2019-02-25T23:40:47.096Z,41.1
2019-02-25T23:50:54.937Z,41.1
